Terminal Aerodrome Forecast
Issued by NWS

Home | Current Version | Previous Version | Text Only | Print | Product List | Glossary On
Versions: 1 2 3 4 5 6 7 8 9 10 11 12 13 14 15 16 17 18
278
FTUS43 KICT 281138
TAFSLN
TAF
KSLN 281138Z 2812/0112 20009KT 6SM BR SCT200
      TEMPO 2812/2814 4SM BR
     FM281400 25008KT P6SM BKN250
     FM281700 25013G22KT P6SM BKN150
     FM010000 34017G24KT P6SM VCSH BKN025 OVC100
     FM010700 32016G24KT P6SM SCT100=

USA.gov is the U.S. government's official web portal to all federal, state and local government web resources and services.